createdAt,value
2017-10-30T00:00:14.174Z,66.44
2017-10-30T00:02:40.147Z,66.40
2017-10-30T00:05:06.102Z,66.66
2017-10-30T00:07:32.088Z,66.39
2017-10-30T00:09:58.027Z,66.69
2017-10-30T00:12:23.987Z,66.45
2017-10-30T00:14:49.962Z,66.68
2017-10-30T00:17:15.889Z,65.97
2017-10-30T00:19:41.853Z,65.43
2017-10-30T00:22:07.803Z,66.82
2017-10-30T00:24:33.722Z,66.79
2017-10-30T00:26:59.688Z,66.59
2017-10-30T00:29:25.634Z,66.25
2017-10-30T00:31:51.565Z,66.03
2017-10-30T00:34:17.573Z,66.96
2017-10-30T00:36:43.543Z,66.78
2017-10-30T00:39:09.478Z,67.43
2017-10-30T00:41:35.416Z,67.02
2017-10-30T00:44:01.351Z,67.39
2017-10-30T00:46:27.317Z,67.21
2017-10-30T00:48:53.263Z,67.48
2017-10-30T00:51:19.223Z,66.90
2017-10-30T00:53:45.153Z,66.84
2017-10-30T00:56:11.075Z,67.20
2017-10-30T00:58:37.840Z,67.42
2017-10-30T01:01:03.783Z,67.21
2017-10-30T01:03:29.713Z,67.78
2017-10-30T01:05:55.652Z,67.60
2017-10-30T01:08:21.584Z,67.55
2017-10-30T01:10:47.539Z,67.01
2017-10-30T01:13:14.125Z,67.37
2017-10-30T01:15:40.057Z,68.11
2017-10-30T01:18:06.827Z,67.83
2017-10-30T01:20:32.771Z,67.97
2017-10-30T01:22:58.713Z,67.05
2017-10-30T01:25:24.693Z,67.33
2017-10-30T01:27:50.639Z,67.48
2017-10-30T01:30:16.574Z,67.66
2017-10-30T01:32:42.513Z,67.87
2017-10-30T01:35:08.725Z,68.42
2017-10-30T01:37:34.699Z,67.90
2017-10-30T01:40:00.647Z,67.60
2017-10-30T01:42:26.585Z,67.21
2017-10-30T01:44:52.559Z,67.49
2017-10-30T01:47:18.531Z,68.32
2017-10-30T01:49:44.459Z,67.74
2017-10-30T01:52:10.417Z,67.41
2017-10-30T01:54:36.357Z,67.61
2017-10-30T01:57:02.321Z,67.38
2017-10-30T01:59:28.323Z,67.38
2017-10-30T02:01:54.245Z,66.61
2017-10-30T02:04:20.183Z,67.07
2017-10-30T02:06:46.093Z,67.21
2017-10-30T02:09:12.008Z,67.03
2017-10-30T02:11:38.039Z,67.13
2017-10-30T02:14:03.968Z,66.76
2017-10-30T02:16:29.917Z,67.16
2017-10-30T02:18:55.879Z,66.47
2017-10-30T02:21:21.811Z,66.90
2017-10-30T02:23:47.768Z,66.83
2017-10-30T02:26:13.715Z,66.50
2017-10-30T02:28:39.653Z,66.63
2017-10-30T02:31:05.601Z,66.75
2017-10-30T02:33:31.609Z,66.54
2017-10-30T02:35:57.591Z,66.23
2017-10-30T02:38:23.527Z,67.16
2017-10-30T02:40:49.505Z,67.17
2017-10-30T02:43:15.462Z,66.71
2017-10-30T02:45:41.426Z,66.83
2017-10-30T02:48:07.381Z,66.58
2017-10-30T02:50:33.315Z,66.58
2017-10-30T02:52:59.250Z,66.51
2017-10-30T02:55:25.179Z,66.88
2017-10-30T02:57:51.153Z,66.14
2017-10-30T03:00:17.105Z,65.81
2017-10-30T03:02:43.043Z,65.58
2017-10-30T03:05:08.960Z,66.22
2017-10-30T03:07:34.901Z,66.39
2017-10-30T03:10:00.947Z,66.68
2017-10-30T03:12:26.892Z,66.52
2017-10-30T03:14:52.824Z,66.67
2017-10-30T03:17:18.776Z,67.12
2017-10-30T03:19:44.699Z,66.75
2017-10-30T03:22:10.635Z,67.36
2017-10-30T03:24:36.580Z,66.24
2017-10-30T03:27:02.528Z,66.30
2017-10-30T03:29:28.459Z,66.53
2017-10-30T03:31:54.389Z,67.16
2017-10-30T03:34:20.340Z,67.17
2017-10-30T03:36:46.262Z,66.59
2017-10-30T03:39:12.203Z,66.20
2017-10-30T03:41:38.149Z,66.01
2017-10-30T03:44:04.088Z,65.79
2017-10-30T03:46:30.049Z,65.87
2017-10-30T03:48:55.989Z,65.22
2017-10-30T03:51:21.923Z,65.85
2017-10-30T03:53:47.851Z,65.50
2017-10-30T03:56:13.771Z,66.66
2017-10-30T03:58:39.743Z,66.63
2017-10-30T04:01:05.708Z,66.97
2017-10-30T04:03:31.643Z,66.95
2017-10-30T04:05:57.626Z,65.83
2017-10-30T04:08:23.580Z,66.62
2017-10-30T04:10:49.523Z,66.24
2017-10-30T04:13:15.451Z,66.21
2017-10-30T04:15:41.397Z,66.34
2017-10-30T04:18:07.339Z,65.78
2017-10-30T04:20:33.269Z,65.43
2017-10-30T04:22:59.231Z,65.85
2017-10-30T04:25:25.176Z,66.87
2017-10-30T04:27:51.107Z,66.06
2017-10-30T04:30:17.043Z,65.69
2017-10-30T04:32:42.966Z,66.34
2017-10-30T04:35:08.911Z,66.75
2017-10-30T04:37:34.845Z,66.05
2017-10-30T04:40:00.810Z,66.09
2017-10-30T04:42:26.769Z,66.51
2017-10-30T04:44:52.713Z,67.24
2017-10-30T04:47:18.659Z,66.62
2017-10-30T04:49:44.607Z,67.09
2017-10-30T04:52:10.559Z,65.84
2017-10-30T04:54:36.512Z,66.28
2017-10-30T04:57:02.450Z,66.71
2017-10-30T04:59:28.391Z,66.27
2017-10-30T05:01:54.347Z,66.40
2017-10-30T05:04:20.299Z,65.55
2017-10-30T05:06:46.239Z,65.95
2017-10-30T05:09:12.201Z,66.10
2017-10-30T05:11:38.141Z,66.18
2017-10-30T05:14:04.113Z,66.73
2017-10-30T05:16:30.049Z,67.62
2017-10-30T05:18:56.083Z,66.95
2017-10-30T05:21:22.056Z,66.41
2017-10-30T05:23:47.995Z,67.57
2017-10-30T05:26:13.986Z,66.68
2017-10-30T05:28:39.963Z,67.27
2017-10-30T05:31:05.904Z,66.91
2017-10-30T05:33:31.882Z,67.49
2017-10-30T05:35:57.831Z,67.08
2017-10-30T05:38:23.764Z,67.23
2017-10-30T05:40:49.733Z,67.99
2017-10-30T05:43:15.660Z,67.62
2017-10-30T05:45:41.671Z,68.22
2017-10-30T05:48:07.628Z,68.21
2017-10-30T05:50:33.571Z,67.92
2017-10-30T05:52:59.514Z,68.23
2017-10-30T05:55:25.477Z,67.44
2017-10-30T05:57:51.428Z,67.86
2017-10-30T06:00:17.350Z,68.59
2017-10-30T06:02:43.321Z,68.14
2017-10-30T06:05:09.320Z,69.00
2017-10-30T06:07:35.270Z,68.92
2017-10-30T06:10:01.235Z,68.26
2017-10-30T06:12:27.281Z,68.11
2017-10-30T06:14:53.239Z,68.54
2017-10-30T06:17:19.230Z,67.77
2017-10-30T06:19:45.158Z,67.17
2017-10-30T06:22:11.129Z,67.42
2017-10-30T06:24:37.195Z,67.31
2017-10-30T06:27:03.155Z,67.20
2017-10-30T06:29:29.102Z,67.57
2017-10-30T06:31:55.033Z,67.68
2017-10-30T06:34:21.037Z,67.60
2017-10-30T06:36:46.969Z,67.36
2017-10-30T06:39:12.913Z,67.34
2017-10-30T06:41:38.846Z,67.09
2017-10-30T06:44:04.827Z,67.64
2017-10-30T06:46:30.774Z,67.31
2017-10-30T06:48:56.725Z,67.41
2017-10-30T06:51:22.679Z,67.97
2017-10-30T06:53:48.630Z,67.90
2017-10-30T06:56:14.597Z,67.99
2017-10-30T06:58:40.577Z,67.70
2017-10-30T07:01:06.527Z,67.38
2017-10-30T07:03:32.565Z,67.20
2017-10-30T07:05:58.540Z,66.93
2017-10-30T07:08:24.485Z,66.90
2017-10-30T07:10:50.423Z,66.52
2017-10-30T07:13:16.413Z,66.93
2017-10-30T07:15:42.351Z,67.48
2017-10-30T07:18:08.279Z,66.75
2017-10-30T07:20:34.243Z,67.25
2017-10-30T07:23:00.222Z,67.62
2017-10-30T07:25:26.150Z,67.87
2017-10-30T07:27:52.094Z,66.88
2017-10-30T07:30:18.034Z,67.09
2017-10-30T07:32:43.969Z,65.71
2017-10-30T07:35:10.031Z,66.59
2017-10-30T07:37:35.997Z,66.25
2017-10-30T07:40:01.934Z,66.68
2017-10-30T07:42:27.855Z,66.57
2017-10-30T07:44:53.797Z,66.59
2017-10-30T07:47:19.749Z,67.04
2017-10-30T07:49:45.683Z,66.77
2017-10-30T07:52:11.602Z,66.37
2017-10-30T07:54:37.545Z,66.63
2017-10-30T07:57:03.493Z,65.63
2017-10-30T07:59:29.428Z,66.14
2017-10-30T08:01:55.379Z,65.62
2017-10-30T08:04:21.347Z,65.94
2017-10-30T08:06:47.263Z,66.04
2017-10-30T08:09:13.313Z,65.86
2017-10-30T08:11:40.159Z,65.87
2017-10-30T08:14:06.423Z,65.72
2017-10-30T08:16:32.380Z,66.22
2017-10-30T08:18:58.335Z,65.70
2017-10-30T08:21:24.283Z,66.62
2017-10-30T08:23:50.261Z,66.59
2017-10-30T08:26:16.201Z,66.31
2017-10-30T08:28:42.141Z,65.39
2017-10-30T08:31:08.151Z,65.85
2017-10-30T08:33:34.175Z,65.47
2017-10-30T08:36:01.359Z,64.22
2017-10-30T08:40:59.590Z,63.85
2017-10-30T08:43:25.559Z,65.38
2017-10-30T08:45:51.566Z,63.31
2017-10-30T08:48:17.572Z,64.67
2017-10-30T08:50:43.512Z,64.62
2017-10-30T08:53:09.555Z,64.30
2017-10-30T08:55:35.504Z,63.90
2017-10-30T08:58:01.482Z,64.21
2017-10-30T09:00:27.462Z,63.09
2017-10-30T09:02:53.402Z,62.70
2017-10-30T09:05:19.338Z,63.50
2017-10-30T09:07:45.273Z,63.21
2017-10-30T09:10:11.204Z,63.09
2017-10-30T09:12:37.206Z,62.99
2017-10-30T09:15:03.143Z,62.41
2017-10-30T09:17:29.113Z,62.81
2017-10-30T09:19:55.078Z,61.26
2017-10-30T09:22:21.038Z,60.52
2017-10-30T09:24:47.018Z,60.94
2017-10-30T09:27:13.086Z,60.01
2017-10-30T09:29:39.048Z,60.20
2017-10-30T09:32:05.012Z,60.53
2017-10-30T09:34:30.981Z,59.47
2017-10-30T09:36:56.964Z,59.46
2017-10-30T09:39:22.988Z,59.29
2017-10-30T09:41:48.982Z,59.00
2017-10-30T09:44:14.949Z,59.09
2017-10-30T09:46:40.938Z,58.86
2017-10-30T09:49:06.916Z,58.76
2017-10-30T09:51:32.886Z,58.49
2017-10-30T09:53:58.840Z,57.55
2017-10-30T09:56:24.820Z,57.36
2017-10-30T09:58:50.775Z,56.67
2017-10-30T10:01:16.706Z,58.09
2017-10-30T10:03:42.664Z,55.15
2017-10-30T10:06:08.620Z,55.14
2017-10-30T10:08:34.620Z,55.26
2017-10-30T10:11:00.639Z,55.35
2017-10-30T10:13:26.616Z,54.41
2017-10-30T10:15:52.893Z,55.08
2017-10-30T10:18:18.951Z,55.28
2017-10-30T10:20:44.899Z,53.93
2017-10-30T10:23:10.845Z,53.98
2017-10-30T10:25:36.774Z,54.18
2017-10-30T10:28:02.707Z,54.31
2017-10-30T10:30:28.670Z,54.76
2017-10-30T10:32:54.655Z,54.18
2017-10-30T10:35:20.684Z,54.10
2017-10-30T10:37:47.640Z,53.22
2017-10-30T10:40:13.732Z,53.61
2017-10-30T10:42:39.712Z,52.26
2017-10-30T10:45:05.711Z,53.26
2017-10-30T10:47:31.669Z,53.45
2017-10-30T10:49:57.626Z,55.10
2017-10-30T10:52:23.595Z,55.37
2017-10-30T10:54:49.650Z,54.36
2017-10-30T10:57:15.588Z,54.28
2017-10-30T10:59:41.516Z,54.02
2017-10-30T11:02:07.514Z,54.61
2017-10-30T11:04:33.466Z,55.36
2017-10-30T11:06:59.405Z,55.14
2017-10-30T11:09:25.353Z,54.30
2017-10-30T11:11:51.312Z,52.44
2017-10-30T11:14:17.272Z,52.98
2017-10-30T11:16:43.227Z,53.86
2017-10-30T11:19:09.168Z,54.78
2017-10-30T11:21:35.100Z,53.42
2017-10-30T11:24:01.037Z,53.79
2017-10-30T11:26:27.000Z,52.97
2017-10-30T11:28:52.947Z,53.19
2017-10-30T11:31:18.884Z,52.71
2017-10-30T11:33:44.817Z,58.79
2017-10-30T11:36:10.744Z,49.97
2017-10-30T11:38:36.710Z,51.61
2017-10-30T11:41:02.644Z,51.62
2017-10-30T11:43:28.582Z,52.29
2017-10-30T11:45:54.622Z,51.05
2017-10-30T11:48:20.658Z,50.51
2017-10-30T11:50:46.632Z,51.42
2017-10-30T11:53:12.573Z,49.94
2017-10-30T11:55:38.546Z,49.85
2017-10-30T11:58:04.522Z,49.14
2017-10-30T12:00:30.491Z,49.95
2017-10-30T12:02:56.432Z,49.39
2017-10-30T12:05:22.381Z,49.29
2017-10-30T12:07:48.340Z,49.11
2017-10-30T12:10:14.312Z,48.63
2017-10-30T12:12:40.240Z,48.90
2017-10-30T12:15:06.164Z,48.03
2017-10-30T12:17:32.148Z,48.52
2017-10-30T12:19:58.106Z,48.45
2017-10-30T12:22:24.051Z,47.75
2017-10-30T12:24:50.056Z,48.97
2017-10-30T12:27:16.122Z,48.04
2017-10-30T12:29:42.058Z,47.79
2017-10-30T12:32:08.010Z,45.04
2017-10-30T12:34:34.007Z,45.32
2017-10-30T12:36:59.994Z,45.68
2017-10-30T12:39:25.955Z,44.89
2017-10-30T12:41:51.918Z,44.44
2017-10-30T12:44:18.374Z,43.86
2017-10-30T12:46:44.316Z,44.48
2017-10-30T12:49:10.272Z,45.11
2017-10-30T12:51:36.299Z,45.69
2017-10-30T12:54:02.229Z,45.08
2017-10-30T12:56:28.276Z,46.25
2017-10-30T12:58:54.252Z,55.14
2017-10-30T13:01:20.222Z,58.61
2017-10-30T13:03:46.739Z,54.64
2017-10-30T13:06:12.712Z,57.03
2017-10-30T13:08:38.682Z,55.15
2017-10-30T13:11:04.622Z,47.82
2017-10-30T13:13:30.556Z,48.07
2017-10-30T13:15:56.524Z,51.28
2017-10-30T13:18:22.462Z,48.70
2017-10-30T13:20:48.425Z,54.38
2017-10-30T13:23:14.379Z,49.22
2017-10-30T13:25:40.340Z,49.17
2017-10-30T13:28:06.328Z,49.16
2017-10-30T13:30:32.264Z,49.21
2017-10-30T13:32:58.271Z,46.73
2017-10-30T13:35:24.287Z,45.96
2017-10-30T13:37:50.235Z,47.29
2017-10-30T13:40:16.259Z,49.06
2017-10-30T13:42:42.217Z,46.45
2017-10-30T13:45:08.188Z,45.79
2017-10-30T13:47:34.149Z,45.78
2017-10-30T13:50:00.122Z,45.13
2017-10-30T13:52:26.120Z,45.42
2017-10-30T13:54:52.051Z,44.88
2017-10-30T13:57:18.000Z,45.77
2017-10-30T13:59:43.930Z,45.75
2017-10-30T14:02:09.898Z,44.81
2017-10-30T14:04:35.999Z,46.98
2017-10-30T14:07:01.948Z,45.91
2017-10-30T14:09:27.882Z,46.48
2017-10-30T14:11:53.828Z,45.57
2017-10-30T14:14:19.766Z,45.94
2017-10-30T14:16:45.705Z,46.98
2017-10-30T14:19:11.652Z,44.67
2017-10-30T14:21:37.596Z,46.62
2017-10-30T14:24:03.556Z,44.99
2017-10-30T14:26:29.520Z,45.01
2017-10-30T14:28:55.460Z,46.61
2017-10-30T14:31:21.434Z,46.06
2017-10-30T14:33:47.379Z,45.53
2017-10-30T14:36:13.318Z,47.63
2017-10-30T14:38:39.289Z,46.41
2017-10-30T14:41:05.234Z,45.29
2017-10-30T14:43:31.198Z,46.35
2017-10-30T14:45:57.408Z,44.46
2017-10-30T14:48:23.339Z,45.49
2017-10-30T14:50:49.282Z,44.92
2017-10-30T14:53:15.233Z,45.45
2017-10-30T14:55:41.207Z,45.25
2017-10-30T14:58:07.173Z,45.42
2017-10-30T15:00:33.137Z,46.67
2017-10-30T15:02:59.072Z,45.67
2017-10-30T15:05:25.036Z,48.22
2017-10-30T15:07:51.340Z,56.91
2017-10-30T15:10:17.288Z,45.23
2017-10-30T15:12:43.228Z,46.72
2017-10-30T15:15:09.160Z,46.20
2017-10-30T15:17:35.107Z,45.89
2017-10-30T15:20:01.095Z,46.08
2017-10-30T15:22:27.073Z,45.68
2017-10-30T15:24:53.113Z,46.44
2017-10-30T15:27:20.287Z,46.55
2017-10-30T15:29:46.252Z,46.55
2017-10-30T15:32:12.237Z,46.50
2017-10-30T15:34:38.165Z,46.56
2017-10-30T15:37:04.242Z,46.19
2017-10-30T15:39:30.188Z,47.21
2017-10-30T15:41:56.161Z,47.31
2017-10-30T15:44:22.299Z,47.90
2017-10-30T15:46:48.263Z,47.51
2017-10-30T15:49:14.209Z,47.70
2017-10-30T15:51:40.250Z,48.60
2017-10-30T15:54:07.313Z,48.55
2017-10-30T15:56:33.541Z,49.39
2017-10-30T15:58:59.479Z,49.76
2017-10-30T16:01:25.432Z,50.37
2017-10-30T16:03:52.622Z,50.38
2017-10-30T16:06:18.595Z,50.36
2017-10-30T16:08:47.661Z,50.02
2017-10-30T16:11:13.614Z,50.47
2017-10-30T16:13:43.187Z,50.28
2017-10-30T16:16:09.124Z,50.54
2017-10-30T16:18:35.064Z,50.30
2017-10-30T16:21:01.301Z,49.84
2017-10-30T16:23:30.402Z,51.34
2017-10-30T16:25:57.604Z,49.97
2017-10-30T16:28:23.553Z,49.45
2017-10-30T16:30:49.485Z,49.46
2017-10-30T16:36:09.415Z,49.54
2017-10-30T16:38:35.364Z,49.31
2017-10-30T16:41:01.309Z,49.47
2017-10-30T16:43:27.306Z,49.46
2017-10-30T16:45:53.340Z,49.26
2017-10-30T16:48:19.312Z,49.50
2017-10-30T16:50:45.247Z,49.11
2017-10-30T16:53:11.172Z,49.60
2017-10-30T16:55:37.117Z,49.57
2017-10-30T16:58:03.053Z,49.21
2017-10-30T17:00:28.985Z,49.45
2017-10-30T17:02:54.931Z,49.91
2017-10-30T17:05:20.869Z,50.25
2017-10-30T17:07:47.859Z,50.14
2017-10-30T17:10:13.793Z,49.99
2017-10-30T17:12:39.733Z,50.03
2017-10-30T17:15:05.673Z,50.22
2017-10-30T17:17:31.653Z,50.19
2017-10-30T17:19:57.676Z,49.99
2017-10-30T17:22:23.658Z,50.33
2017-10-30T17:24:49.606Z,50.53
2017-10-30T17:27:15.563Z,50.66
2017-10-30T17:29:41.516Z,50.45
2017-10-30T17:32:07.443Z,50.49
2017-10-30T17:34:33.454Z,50.93
2017-10-30T17:36:59.415Z,50.73
2017-10-30T17:39:25.378Z,50.93
2017-10-30T17:41:51.345Z,51.04
2017-10-30T17:44:17.275Z,50.69
2017-10-30T17:46:43.250Z,51.01
2017-10-30T17:49:09.210Z,51.12
2017-10-30T17:51:35.144Z,51.10
2017-10-30T17:54:01.106Z,50.97
2017-10-30T17:56:27.039Z,51.28
2017-10-30T17:58:52.966Z,50.84
2017-10-30T18:01:18.903Z,51.37
2017-10-30T18:03:44.831Z,51.51
2017-10-30T18:06:10.765Z,51.43
2017-10-30T18:08:36.728Z,51.30
2017-10-30T18:11:02.665Z,51.77
2017-10-30T18:13:28.605Z,51.47
2017-10-30T18:15:54.627Z,52.03
2017-10-30T18:18:20.591Z,52.32
2017-10-30T18:20:46.531Z,52.52
2017-10-30T18:23:12.465Z,52.48
2017-10-30T18:25:38.433Z,52.73
2017-10-30T18:28:04.389Z,53.22
2017-10-30T18:30:30.333Z,53.06
2017-10-30T18:32:56.289Z,52.87
2017-10-30T18:35:22.223Z,52.35
2017-10-30T18:37:48.994Z,52.54
2017-10-30T18:40:14.935Z,52.69
2017-10-30T18:42:40.888Z,52.70
2017-10-30T18:45:06.823Z,53.24
2017-10-30T18:47:32.805Z,53.23
2017-10-30T18:49:58.777Z,53.30
2017-10-30T18:52:24.913Z,53.10
2017-10-30T18:54:50.857Z,52.95
2017-10-30T18:57:16.785Z,53.74
2017-10-30T18:59:42.719Z,53.33
2017-10-30T19:02:08.684Z,53.16
2017-10-30T19:04:34.629Z,53.21
2017-10-30T19:07:00.588Z,53.37
2017-10-30T19:09:26.521Z,53.42
2017-10-30T19:11:52.451Z,53.75
2017-10-30T19:14:18.396Z,53.60
2017-10-30T19:16:44.363Z,53.42
2017-10-30T19:19:10.337Z,53.65
2017-10-30T19:21:36.263Z,53.16
2017-10-30T19:24:02.223Z,53.76
2017-10-30T19:26:28.165Z,53.21
2017-10-30T19:28:54.120Z,53.71
2017-10-30T19:31:20.190Z,53.31
2017-10-30T19:33:46.203Z,53.57
2017-10-30T19:36:12.133Z,54.02
2017-10-30T19:38:38.068Z,53.92
2017-10-30T19:41:04.045Z,53.30
2017-10-30T19:43:30.001Z,53.47
2017-10-30T19:45:55.967Z,53.91
2017-10-30T19:48:21.929Z,53.24
2017-10-30T19:50:48.768Z,53.07
2017-10-30T19:53:14.724Z,55.90
2017-10-30T19:55:40.683Z,54.54
2017-10-30T19:58:06.645Z,54.62
2017-10-30T20:00:32.613Z,54.05
2017-10-30T20:03:03.786Z,53.79
2017-10-30T20:05:29.747Z,53.72
2017-10-30T20:07:55.680Z,54.46
2017-10-30T20:10:21.636Z,54.57
2017-10-30T20:12:47.585Z,54.01
2017-10-30T20:15:13.676Z,53.98
2017-10-30T20:17:39.676Z,53.96
2017-10-30T20:20:05.702Z,55.08
2017-10-30T20:22:31.680Z,54.41
2017-10-30T20:24:57.624Z,54.51
2017-10-30T20:27:23.609Z,55.05
2017-10-30T20:29:50.247Z,54.83
2017-10-30T20:32:16.424Z,54.59
2017-10-30T20:34:42.362Z,54.31
2017-10-30T20:37:08.420Z,55.00
2017-10-30T20:39:34.393Z,54.88
2017-10-30T20:42:00.340Z,54.93
2017-10-30T20:44:26.349Z,54.89
2017-10-30T20:46:52.280Z,55.24
2017-10-30T20:49:18.314Z,55.08
2017-10-30T20:51:44.268Z,55.96
2017-10-30T20:54:10.224Z,55.71
2017-10-30T20:56:36.180Z,55.84
2017-10-30T20:59:02.133Z,56.21
2017-10-30T21:01:28.227Z,56.09
2017-10-30T21:03:54.338Z,57.16
2017-10-30T21:06:20.339Z,56.72
2017-10-30T21:08:46.300Z,57.16
2017-10-30T21:11:12.249Z,57.10
2017-10-30T21:13:38.196Z,57.07
2017-10-30T21:16:04.160Z,57.68
2017-10-30T21:18:30.101Z,57.38
2017-10-30T21:20:56.037Z,57.49
2017-10-30T21:23:21.984Z,57.71
2017-10-30T21:25:47.918Z,57.89
2017-10-30T21:28:13.860Z,58.79
2017-10-30T21:30:39.826Z,58.03
2017-10-30T21:33:05.787Z,58.54
2017-10-30T21:35:31.714Z,58.43
2017-10-30T21:37:57.644Z,58.57
2017-10-30T21:40:23.587Z,59.03
2017-10-30T21:42:49.520Z,59.24
2017-10-30T21:45:15.873Z,59.04
2017-10-30T21:47:41.820Z,59.46
2017-10-30T21:50:07.766Z,59.37
2017-10-30T21:52:33.717Z,59.73
2017-10-30T21:54:59.695Z,60.91
2017-10-30T21:57:25.678Z,62.24
2017-10-30T21:59:51.710Z,62.23
2017-10-30T22:02:17.673Z,63.85
2017-10-30T22:04:43.726Z,62.08
2017-10-30T22:07:10.750Z,62.87
2017-10-30T22:09:36.811Z,61.94
2017-10-30T22:12:02.744Z,63.18
2017-10-30T22:14:28.679Z,62.38
2017-10-30T22:16:54.651Z,62.36
2017-10-30T22:19:20.592Z,62.59
2017-10-30T22:21:46.568Z,62.02
2017-10-30T22:24:12.506Z,62.05
2017-10-30T22:26:38.539Z,62.66
2017-10-30T22:29:04.484Z,61.92
2017-10-30T22:31:30.446Z,62.66
2017-10-30T22:33:56.407Z,61.89
2017-10-30T22:36:22.356Z,62.78
2017-10-30T22:38:48.297Z,62.57
2017-10-30T22:41:14.246Z,62.47
2017-10-30T22:43:40.186Z,61.96
2017-10-30T22:46:06.138Z,62.77
2017-10-30T22:48:32.084Z,62.11
2017-10-30T22:50:58.012Z,62.99
2017-10-30T22:53:23.950Z,63.03
2017-10-30T22:55:49.894Z,62.60
2017-10-30T22:58:15.908Z,63.07
2017-10-30T23:00:41.850Z,62.62
2017-10-30T23:03:07.812Z,62.76
2017-10-30T23:05:33.742Z,62.94
2017-10-30T23:07:59.940Z,63.32
2017-10-30T23:10:25.883Z,62.55
2017-10-30T23:12:52.122Z,63.27
2017-10-30T23:15:18.061Z,63.08
2017-10-30T23:17:44.004Z,62.99
2017-10-30T23:20:09.970Z,62.40
2017-10-30T23:22:35.921Z,63.09
2017-10-30T23:25:01.862Z,63.11
2017-10-30T23:27:27.791Z,63.31
2017-10-30T23:29:53.746Z,63.27
2017-10-30T23:32:19.708Z,63.24
2017-10-30T23:34:45.680Z,63.64
2017-10-30T23:37:11.620Z,63.69
2017-10-30T23:39:37.568Z,64.11
2017-10-30T23:42:03.500Z,64.12
2017-10-30T23:44:29.450Z,63.86
2017-10-30T23:46:55.492Z,63.34
2017-10-30T23:49:21.457Z,63.68
2017-10-30T23:51:47.404Z,63.67
2017-10-30T23:54:13.330Z,63.83
2017-10-30T23:56:39.264Z,63.98
2017-10-30T23:59:05.204Z,63.77
